createdAt,value
2023-04-25T00:00:00.541Z,31.42
2023-04-25T00:01:00.589Z,31.45
2023-04-25T00:02:00.656Z,31.40
2023-04-25T00:03:00.884Z,31.47
2023-04-25T00:04:00.820Z,31.45
2023-04-25T00:05:00.784Z,31.38
2023-04-25T00:06:00.710Z,31.42
2023-04-25T00:07:00.666Z,31.42
2023-04-25T00:08:00.672Z,31.38
2023-04-25T00:09:00.671Z,31.42
2023-04-25T00:10:00.680Z,31.38
2023-04-25T00:11:00.704Z,31.39
2023-04-25T00:12:00.679Z,31.36
2023-04-25T00:13:00.703Z,31.38
2023-04-25T00:14:00.786Z,31.42
2023-04-25T00:15:00.839Z,31.35
2023-04-25T00:16:00.928Z,31.34
2023-04-25T00:17:00.952Z,31.40
2023-04-25T00:18:01.108Z,31.38
2023-04-25T00:19:01.104Z,31.45
2023-04-25T00:20:01.160Z,31.44
2023-04-25T00:21:01.233Z,31.39
2023-04-25T00:22:01.297Z,31.35
2023-04-25T00:23:01.362Z,31.37
2023-04-25T00:24:01.420Z,31.42
2023-04-25T00:25:01.473Z,31.36
2023-04-25T00:26:01.550Z,31.41
2023-04-25T00:27:01.612Z,31.37
2023-04-25T00:28:01.680Z,31.39
2023-04-25T00:29:01.739Z,31.33
2023-04-25T00:30:01.812Z,31.33
2023-04-25T00:31:01.872Z,31.37
2023-04-25T00:32:02.033Z,31.43
2023-04-25T00:33:02.051Z,31.38
2023-04-25T00:34:02.069Z,31.38
2023-04-25T00:35:02.139Z,31.37
2023-04-25T00:36:02.209Z,31.41
2023-04-25T00:37:02.294Z,31.36
2023-04-25T00:38:02.384Z,31.36
2023-04-25T00:39:02.428Z,31.35
2023-04-25T00:40:02.484Z,31.35
2023-04-25T00:41:02.553Z,31.39
2023-04-25T00:42:02.601Z,31.38
2023-04-25T00:43:02.693Z,31.31
2023-04-25T00:44:02.764Z,31.36
2023-04-25T00:45:02.823Z,31.33
2023-04-25T00:46:02.911Z,31.28
2023-04-25T00:47:03.102Z,31.37
2023-04-25T00:48:03.121Z,31.38
2023-04-25T00:49:03.119Z,31.41
2023-04-25T00:50:03.193Z,31.42
2023-04-25T00:51:03.270Z,31.39
2023-04-25T00:52:03.360Z,31.29
2023-04-25T00:53:03.393Z,31.35
2023-04-25T00:54:03.482Z,31.29
2023-04-25T00:55:03.531Z,31.31
2023-04-25T00:56:03.624Z,31.38
2023-04-25T00:57:03.647Z,31.38
2023-04-25T00:58:03.721Z,31.39
2023-04-25T00:59:03.787Z,31.33
2023-04-25T01:00:03.851Z,31.35
2023-04-25T01:01:03.969Z,31.36
2023-04-25T01:02:04.004Z,31.33
2023-04-25T01:03:04.234Z,31.32
2023-04-25T01:04:04.254Z,31.35
2023-04-25T01:05:04.177Z,31.37
2023-04-25T01:06:04.232Z,31.33
2023-04-25T01:07:04.281Z,31.36
2023-04-25T01:08:04.347Z,31.37
2023-04-25T01:09:04.420Z,31.41
2023-04-25T01:10:04.581Z,31.35
2023-04-25T01:11:04.545Z,31.36
2023-04-25T01:12:04.606Z,31.33
2023-04-25T01:13:04.685Z,31.34
2023-04-25T01:14:04.759Z,31.32
2023-04-25T01:15:04.807Z,31.34
2023-04-25T01:16:04.896Z,31.33
2023-04-25T01:17:04.992Z,31.34
2023-04-25T01:18:05.069Z,31.38
2023-04-25T01:19:05.093Z,31.30
2023-04-25T01:20:05.154Z,31.35
2023-04-25T01:21:05.221Z,31.40
2023-04-25T01:22:05.290Z,31.34
2023-04-25T01:23:05.366Z,31.32
2023-04-25T01:24:05.425Z,31.35
2023-04-25T01:25:05.493Z,31.34
2023-04-25T01:26:05.564Z,31.33
2023-04-25T01:27:05.624Z,31.30
2023-04-25T01:28:05.675Z,31.35
2023-04-25T01:29:05.758Z,31.30
2023-04-25T01:30:05.813Z,31.39
2023-04-25T01:31:05.886Z,31.38
2023-04-25T01:32:05.936Z,31.42
2023-04-25T01:33:06.075Z,31.33
2023-04-25T01:34:06.070Z,31.31
2023-04-25T01:35:06.146Z,31.33
2023-04-25T01:36:06.192Z,31.34
2023-04-25T01:37:06.262Z,31.35
2023-04-25T01:38:06.342Z,31.33
2023-04-25T01:39:06.407Z,31.32
2023-04-25T01:40:06.476Z,31.33
2023-04-25T01:41:06.527Z,31.27
2023-04-25T01:42:06.580Z,31.31
2023-04-25T01:43:06.653Z,31.34
2023-04-25T01:44:06.721Z,31.38
2023-04-25T01:45:06.797Z,31.36
2023-04-25T01:46:06.891Z,31.34
2023-04-25T01:47:06.904Z,31.35
2023-04-25T01:48:06.997Z,31.27
2023-04-25T01:49:07.022Z,31.35
2023-04-25T01:50:07.115Z,31.29
2023-04-25T01:51:07.162Z,31.29
2023-04-25T01:52:07.211Z,31.31
2023-04-25T01:53:07.280Z,31.36
2023-04-25T01:54:07.352Z,31.35
2023-04-25T01:55:07.425Z,31.30
2023-04-25T01:56:07.498Z,31.36
2023-04-25T01:57:07.550Z,31.37
2023-04-25T01:58:07.601Z,31.28
2023-04-25T01:59:07.680Z,31.32
2023-04-25T02:00:07.764Z,31.28
2023-04-25T02:01:07.840Z,31.33
2023-04-25T02:02:07.880Z,31.36
2023-04-25T02:03:08.017Z,31.31
2023-04-25T02:04:08.163Z,31.30
2023-04-25T02:05:08.086Z,31.32
2023-04-25T02:06:08.138Z,31.31
2023-04-25T02:07:08.190Z,31.31
2023-04-25T02:08:08.235Z,31.32
2023-04-25T02:09:08.311Z,31.29
2023-04-25T02:10:08.380Z,31.24
2023-04-25T02:11:08.445Z,31.22
2023-04-25T02:12:08.501Z,31.28
2023-04-25T02:13:08.554Z,31.23
2023-04-25T02:14:08.555Z,31.22
2023-04-25T02:15:08.555Z,31.24
2023-04-25T02:16:08.669Z,31.24
2023-04-25T02:17:08.637Z,31.19
2023-04-25T02:18:08.574Z,31.28
2023-04-25T02:19:08.547Z,31.25
2023-04-25T02:20:08.553Z,31.28
2023-04-25T02:21:08.552Z,31.28
2023-04-25T02:22:08.568Z,31.21
2023-04-25T02:23:08.640Z,31.27
2023-04-25T02:24:08.718Z,31.33
2023-04-25T02:25:08.771Z,31.18
2023-04-25T02:26:08.838Z,31.24
2023-04-25T02:27:08.904Z,31.23
2023-04-25T02:28:08.973Z,31.27
2023-04-25T02:29:09.028Z,31.22
2023-04-25T02:30:09.096Z,31.26
2023-04-25T02:31:09.210Z,31.26
2023-04-25T02:32:09.217Z,31.26
2023-04-25T02:33:09.336Z,31.28
2023-04-25T02:34:09.369Z,31.24
2023-04-25T02:35:09.395Z,31.29
2023-04-25T02:36:09.404Z,31.28
2023-04-25T02:37:09.401Z,31.29
2023-04-25T02:38:09.397Z,31.27
2023-04-25T02:39:09.419Z,31.23
2023-04-25T02:40:09.431Z,31.19
2023-04-25T02:41:09.436Z,31.22
2023-04-25T02:42:09.423Z,31.25
2023-04-25T02:43:09.442Z,31.28
2023-04-25T02:44:09.421Z,31.28
2023-04-25T02:45:09.450Z,31.29
2023-04-25T02:46:09.506Z,31.24
2023-04-25T02:47:09.561Z,31.24
2023-04-25T02:48:09.631Z,31.26
2023-04-25T02:49:09.666Z,31.26
2023-04-25T02:50:09.722Z,31.29
2023-04-25T02:51:09.795Z,31.22
2023-04-25T02:52:09.861Z,31.25
2023-04-25T02:53:09.947Z,31.27
2023-04-25T02:54:10.003Z,31.19
2023-04-25T02:55:10.093Z,31.23
2023-04-25T02:56:10.211Z,31.22
2023-04-25T02:57:10.211Z,31.24
2023-04-25T02:58:10.259Z,31.22
2023-04-25T02:59:10.348Z,31.27
2023-04-25T03:00:10.413Z,31.25
2023-04-25T03:01:10.499Z,31.27
2023-04-25T03:02:10.600Z,31.22
2023-04-25T03:03:10.713Z,31.21
2023-04-25T03:04:10.725Z,31.24
2023-04-25T03:05:10.784Z,31.20
2023-04-25T03:06:10.837Z,31.17
2023-04-25T03:07:10.910Z,31.17
2023-04-25T03:08:10.959Z,31.20
2023-04-25T03:09:11.030Z,31.16
2023-04-25T03:10:11.105Z,31.21
2023-04-25T03:11:11.193Z,31.20
2023-04-25T03:12:11.248Z,31.17
2023-04-25T03:13:11.230Z,31.26
2023-04-25T03:14:11.228Z,31.17
2023-04-25T03:15:11.251Z,31.21
2023-04-25T03:16:11.267Z,31.17
2023-04-25T03:17:11.243Z,31.26
2023-04-25T03:18:11.249Z,31.29
2023-04-25T03:19:11.255Z,31.24
2023-04-25T03:20:11.251Z,31.26
2023-04-25T03:21:11.271Z,31.25
2023-04-25T03:22:11.260Z,31.23
2023-04-25T03:23:11.284Z,31.22
2023-04-25T03:24:11.277Z,31.16
2023-04-25T03:25:11.269Z,31.22
2023-04-25T03:26:11.281Z,31.23
2023-04-25T03:27:11.285Z,31.23
2023-04-25T03:28:11.270Z,31.25
2023-04-25T03:29:11.278Z,31.27
2023-04-25T03:30:11.263Z,31.14
2023-04-25T03:31:11.273Z,31.20
2023-04-25T03:32:11.316Z,31.17
2023-04-25T03:33:11.558Z,31.18
2023-04-25T03:34:11.283Z,31.18
2023-04-25T03:35:11.281Z,31.15
2023-04-25T03:36:11.297Z,31.16
2023-04-25T03:37:11.384Z,31.20
2023-04-25T03:38:11.440Z,31.13
2023-04-25T03:39:11.489Z,31.12
2023-04-25T03:40:11.550Z,31.20
2023-04-25T03:41:11.625Z,31.17
2023-04-25T03:42:11.691Z,31.19
2023-04-25T03:43:11.755Z,31.17
2023-04-25T03:44:11.831Z,31.18
2023-04-25T03:45:11.908Z,31.10
2023-04-25T03:46:12.015Z,31.11
2023-04-25T03:47:12.034Z,31.19
2023-04-25T03:48:12.104Z,31.19
2023-04-25T03:49:12.177Z,31.14
2023-04-25T03:50:12.229Z,31.12
2023-04-25T03:51:12.287Z,31.16
2023-04-25T03:52:12.383Z,31.16
2023-04-25T03:53:12.442Z,31.22
2023-04-25T03:54:12.500Z,31.19
2023-04-25T03:55:12.564Z,31.14
2023-04-25T03:56:12.624Z,31.13
2023-04-25T03:57:12.705Z,31.17
2023-04-25T03:58:12.796Z,31.15
2023-04-25T03:59:12.824Z,31.17
2023-04-25T04:00:12.882Z,31.19
2023-04-25T04:01:12.944Z,31.20
2023-04-25T04:02:13.091Z,31.22
2023-04-25T04:03:13.302Z,31.17
2023-04-25T04:04:13.422Z,31.17
2023-04-25T04:05:13.305Z,31.12
2023-04-25T04:06:13.291Z,31.12
2023-04-25T04:07:13.295Z,31.12
2023-04-25T04:08:13.295Z,31.18
2023-04-25T04:09:13.310Z,31.16
2023-04-25T04:10:13.305Z,31.15
2023-04-25T04:11:13.342Z,31.12
2023-04-25T04:12:13.335Z,31.18
2023-04-25T04:13:13.331Z,31.16
2023-04-25T04:14:13.347Z,31.19
2023-04-25T04:15:13.342Z,31.16
2023-04-25T04:16:13.435Z,31.18
2023-04-25T04:17:13.352Z,31.17
2023-04-25T04:18:13.381Z,31.09
2023-04-25T04:19:13.378Z,31.15
2023-04-25T04:20:13.383Z,31.11
2023-04-25T04:21:13.393Z,31.13
2023-04-25T04:22:13.402Z,31.11
2023-04-25T04:23:13.434Z,31.13
2023-04-25T04:24:13.489Z,31.10
2023-04-25T04:25:13.566Z,31.15
2023-04-25T04:26:13.603Z,31.14
2023-04-25T04:27:13.711Z,31.16
2023-04-25T04:28:13.745Z,31.13
2023-04-25T04:29:13.838Z,31.11
2023-04-25T04:30:13.905Z,31.19
2023-04-25T04:31:14.005Z,31.14
2023-04-25T04:32:14.044Z,31.13
2023-04-25T04:33:14.192Z,31.14
2023-04-25T04:34:14.190Z,31.16
2023-04-25T04:35:14.257Z,31.21
2023-04-25T04:36:14.324Z,31.21
2023-04-25T04:37:14.417Z,31.19
2023-04-25T04:38:14.465Z,31.13
2023-04-25T04:39:14.573Z,31.13
2023-04-25T04:40:14.607Z,31.13
2023-04-25T04:41:14.667Z,31.18
2023-04-25T04:42:14.751Z,31.18
2023-04-25T04:43:14.820Z,31.16
2023-04-25T04:44:14.895Z,31.15
2023-04-25T04:45:14.967Z,31.17
2023-04-25T04:46:15.076Z,31.17
2023-04-25T04:47:15.129Z,31.17
2023-04-25T04:48:15.212Z,31.15
2023-04-25T04:49:15.266Z,31.06
2023-04-25T04:50:15.326Z,31.12
2023-04-25T04:51:15.410Z,31.07
2023-04-25T04:52:15.482Z,31.13
2023-04-25T04:53:15.550Z,31.17
2023-04-25T04:54:15.622Z,31.13
2023-04-25T04:55:15.695Z,31.13
2023-04-25T04:56:15.777Z,31.13
2023-04-25T04:57:15.844Z,31.15
2023-04-25T04:58:17.464Z,31.00
2023-04-25T04:59:15.921Z,31.11
2023-04-25T05:00:15.925Z,31.11
2023-04-25T05:01:15.950Z,31.11
2023-04-25T05:02:15.995Z,31.09
2023-04-25T05:03:16.091Z,31.07
2023-04-25T05:04:16.056Z,31.04
2023-04-25T05:05:15.975Z,31.04
2023-04-25T05:06:15.981Z,31.07
2023-04-25T05:07:15.988Z,31.03
2023-04-25T05:08:15.985Z,31.07
2023-04-25T05:09:16.027Z,31.11
2023-04-25T05:10:16.150Z,31.15
2023-04-25T05:11:16.177Z,31.09
2023-04-25T05:12:16.231Z,31.04
2023-04-25T05:13:16.300Z,31.09
2023-04-25T05:14:16.384Z,31.07
2023-04-25T05:15:16.495Z,31.12
2023-04-25T05:16:16.567Z,31.08
2023-04-25T05:17:16.609Z,31.12
2023-04-25T05:18:16.739Z,31.11
2023-04-25T05:19:16.790Z,31.12
2023-04-25T05:20:16.810Z,31.08
2023-04-25T05:21:16.910Z,31.11
2023-04-25T05:22:16.966Z,31.02
2023-04-25T05:23:16.960Z,31.10
2023-04-25T05:24:16.968Z,31.08
2023-04-25T05:25:16.966Z,31.12
2023-04-25T05:26:17.017Z,31.08
2023-04-25T05:27:16.995Z,31.13
2023-04-25T05:28:16.974Z,31.01
2023-04-25T05:29:16.997Z,31.11
2023-04-25T05:30:17.021Z,31.23
2023-04-25T05:31:17.047Z,31.26
2023-04-25T05:32:17.213Z,32.14
2023-04-25T05:33:17.201Z,32.83
2023-04-25T05:34:17.294Z,32.72
2023-04-25T05:35:17.401Z,32.76
2023-04-25T05:36:17.415Z,33.05
2023-04-25T05:37:17.501Z,33.15
2023-04-25T05:38:17.588Z,33.39
2023-04-25T05:39:17.647Z,33.58
2023-04-25T05:40:17.689Z,33.76
2023-04-25T05:41:17.754Z,33.89
2023-04-25T05:42:17.830Z,33.87
2023-04-25T05:43:17.881Z,33.89
2023-04-25T05:44:17.950Z,33.98
2023-04-25T05:45:18.028Z,33.99
2023-04-25T05:46:18.113Z,34.31
2023-04-25T05:47:18.144Z,34.18
2023-04-25T05:48:18.280Z,34.32
2023-04-25T05:49:19.600Z,34.91
2023-04-25T05:50:18.337Z,34.70
2023-04-25T05:51:18.347Z,34.42
2023-04-25T05:52:18.323Z,34.32
2023-04-25T05:53:18.463Z,34.21
2023-04-25T05:54:18.323Z,34.05
2023-04-25T05:55:18.330Z,34.03
2023-04-25T05:56:18.312Z,34.01
2023-04-25T05:57:18.314Z,33.99
2023-04-25T05:58:18.307Z,33.88
2023-04-25T05:59:18.302Z,33.83
2023-04-25T06:00:18.315Z,33.75
2023-04-25T06:01:18.302Z,33.71
2023-04-25T06:02:18.390Z,33.65
2023-04-25T06:03:20.513Z,33.57
2023-04-25T06:04:18.744Z,33.51
2023-04-25T06:05:18.354Z,33.44
2023-04-25T06:06:18.354Z,33.44
2023-04-25T06:07:18.316Z,33.38
2023-04-25T06:08:18.312Z,33.36
2023-04-25T06:09:18.310Z,33.28
2023-04-25T06:10:18.318Z,33.21
2023-04-25T06:11:18.303Z,33.19
2023-04-25T06:12:18.294Z,33.15
2023-04-25T06:13:18.307Z,33.13
2023-04-25T06:14:18.686Z,33.08
2023-04-25T06:16:19.338Z,33.04
2023-04-25T06:17:18.433Z,33.00
2023-04-25T06:18:18.312Z,32.95
2023-04-25T06:19:18.318Z,32.87
2023-04-25T06:20:18.304Z,32.82
2023-04-25T06:21:18.307Z,32.76
2023-04-25T06:22:18.313Z,32.72
2023-04-25T06:23:18.311Z,32.66
2023-04-25T06:24:18.337Z,32.63
2023-04-25T06:25:18.328Z,32.62
2023-04-25T06:26:18.340Z,32.57
2023-04-25T06:27:18.328Z,32.52
2023-04-25T06:28:18.319Z,32.50
2023-04-25T06:29:18.315Z,32.56
2023-04-25T06:30:18.326Z,32.56
2023-04-25T06:31:18.344Z,32.56
2023-04-25T06:32:18.315Z,32.54
2023-04-25T06:33:18.318Z,32.51
2023-04-25T06:34:18.324Z,32.49
2023-04-25T06:35:18.347Z,32.43
2023-04-25T06:36:19.043Z,32.47
2023-04-25T06:37:18.459Z,32.45
2023-04-25T06:38:18.548Z,32.46
2023-04-25T06:39:18.614Z,32.36
2023-04-25T06:40:18.675Z,32.34
2023-04-25T06:41:18.779Z,32.40
2023-04-25T06:42:18.816Z,32.46
2023-04-25T06:43:19.039Z,32.59
2023-04-25T06:44:18.926Z,33.47
2023-04-25T06:45:19.095Z,33.52
2023-04-25T06:46:19.113Z,33.58
2023-04-25T06:47:19.106Z,33.48
2023-04-25T06:48:19.166Z,33.49
2023-04-25T06:49:19.215Z,33.89
2023-04-25T06:50:19.234Z,33.96
2023-04-25T06:51:19.278Z,33.78
2023-04-25T06:52:19.361Z,34.11
2023-04-25T06:53:19.374Z,34.41
2023-04-25T06:54:19.391Z,34.57
2023-04-25T06:55:19.418Z,34.65
2023-04-25T06:56:19.386Z,34.83
2023-04-25T06:57:19.429Z,34.94
2023-04-25T06:58:19.460Z,35.39
2023-04-25T06:59:19.443Z,35.18
2023-04-25T07:00:19.562Z,35.34
2023-04-25T07:01:19.533Z,35.42
2023-04-25T07:02:19.522Z,35.36
2023-04-25T07:03:19.472Z,35.41
2023-04-25T07:04:19.461Z,35.46
2023-04-25T07:05:19.543Z,35.40
2023-04-25T07:06:19.379Z,35.55
2023-04-25T07:07:19.336Z,35.85
2023-04-25T07:08:19.341Z,35.82
2023-04-25T07:09:19.319Z,36.34
2023-04-25T07:10:19.295Z,36.24
2023-04-25T07:11:19.277Z,36.17
2023-04-25T07:12:19.265Z,36.41
2023-04-25T07:13:19.642Z,36.47
2023-04-25T07:14:19.215Z,36.69
2023-04-25T07:15:19.230Z,36.67
2023-04-25T07:16:19.282Z,36.77
2023-04-25T07:17:19.199Z,36.79
2023-04-25T07:18:19.227Z,36.67
2023-04-25T07:19:19.154Z,36.56
2023-04-25T07:20:19.169Z,36.77
2023-04-25T07:21:19.124Z,36.89
2023-04-25T07:22:19.118Z,36.84
2023-04-25T07:23:19.119Z,36.80
2023-04-25T07:24:19.091Z,36.74
2023-04-25T07:25:19.093Z,36.67
2023-04-25T07:26:19.064Z,36.19
2023-04-25T07:27:19.026Z,36.77
2023-04-25T07:28:19.673Z,36.88
2023-04-25T07:29:19.145Z,36.86
2023-04-25T07:30:18.997Z,36.92
2023-04-25T07:31:18.969Z,36.77
2023-04-25T07:32:19.376Z,36.59
2023-04-25T07:33:18.935Z,36.67
2023-04-25T07:34:18.921Z,36.73
2023-04-25T07:35:18.892Z,36.48
2023-04-25T07:36:18.907Z,37.01
2023-04-25T07:37:18.871Z,36.79
2023-04-25T07:38:18.892Z,36.63
2023-04-25T07:39:18.900Z,36.50
2023-04-25T07:40:18.822Z,36.81
2023-04-25T07:41:18.838Z,36.82
2023-04-25T07:42:18.865Z,36.98
2023-04-25T07:43:18.881Z,36.63
2023-04-25T07:44:18.899Z,36.02
2023-04-25T07:45:18.919Z,35.51
2023-04-25T07:46:19.094Z,34.75
2023-04-25T07:47:19.082Z,34.98
2023-04-25T07:48:18.997Z,35.05
2023-04-25T07:49:19.001Z,34.81
2023-04-25T07:50:18.999Z,34.79
2023-04-25T07:51:19.085Z,34.71
2023-04-25T07:52:19.051Z,34.80
2023-04-25T07:53:19.183Z,34.57
2023-04-25T07:54:19.098Z,34.72
2023-04-25T07:55:19.101Z,34.60
2023-04-25T07:56:19.152Z,34.76
2023-04-25T07:57:19.090Z,34.59
2023-04-25T07:58:19.162Z,34.82
2023-04-25T07:59:19.170Z,34.68
2023-04-25T08:00:19.184Z,34.83
2023-04-25T08:01:19.205Z,34.96
2023-04-25T08:02:19.256Z,35.09
2023-04-25T08:03:19.828Z,34.86
2023-04-25T08:04:19.366Z,34.91
2023-04-25T08:05:22.304Z,34.93
2023-04-25T08:06:19.500Z,34.88
2023-04-25T08:07:19.220Z,35.02
2023-04-25T08:08:19.184Z,34.90
2023-04-25T08:09:19.160Z,34.78
2023-04-25T08:10:19.091Z,33.97
2023-04-25T08:11:19.264Z,34.23
2023-04-25T08:12:19.435Z,34.22
2023-04-25T08:13:19.122Z,34.17
2023-04-25T08:14:19.063Z,34.38
2023-04-25T08:15:19.029Z,34.23
2023-04-25T08:16:19.087Z,34.20
2023-04-25T08:17:19.063Z,34.29
2023-04-25T08:18:19.193Z,34.16
2023-04-25T08:19:19.056Z,34.19
2023-04-25T08:20:19.080Z,34.41
2023-04-25T08:21:19.070Z,34.60
2023-04-25T08:22:19.212Z,34.75
2023-04-25T08:23:19.184Z,34.49
2023-04-25T08:24:19.138Z,34.29
2023-04-25T08:25:19.087Z,34.45
2023-04-25T08:26:19.118Z,34.44
2023-04-25T08:27:19.927Z,34.35
2023-04-25T08:28:19.030Z,34.33
2023-04-25T08:29:19.019Z,34.21
2023-04-25T08:30:18.987Z,34.28
2023-04-25T08:31:19.020Z,34.95
2023-04-25T08:32:18.927Z,35.12
2023-04-25T08:33:18.931Z,34.94
2023-04-25T08:34:18.884Z,33.88
2023-04-25T08:35:18.857Z,33.17
2023-04-25T08:36:31.409Z,30.67
2023-04-25T08:37:19.840Z,30.51
2023-04-25T08:38:18.825Z,29.73
2023-04-25T08:39:18.850Z,29.32
2023-04-25T08:40:18.860Z,29.17
2023-04-25T08:41:18.799Z,28.93
2023-04-25T08:42:18.802Z,29.33
2023-04-25T08:43:19.710Z,28.69
2023-04-25T08:44:18.802Z,28.46
2023-04-25T08:45:18.838Z,28.53
2023-04-25T08:46:18.803Z,28.85
2023-04-25T08:47:18.769Z,29.60
2023-04-25T08:48:18.769Z,29.80
2023-04-25T08:49:18.738Z,29.85
2023-04-25T08:50:18.800Z,29.78
2023-04-25T08:51:19.879Z,29.93
2023-04-25T08:52:18.746Z,29.95
2023-04-25T08:53:18.722Z,30.24
2023-04-25T08:54:34.693Z,30.41
2023-04-25T08:55:19.699Z,30.70
2023-04-25T08:56:18.680Z,31.20
2023-04-25T08:57:18.668Z,31.22
2023-04-25T08:58:18.644Z,31.37
2023-04-25T08:59:18.662Z,31.47
2023-04-25T09:00:18.736Z,31.73
2023-04-25T09:01:18.688Z,31.94
2023-04-25T09:02:18.652Z,31.94
2023-04-25T09:03:18.658Z,32.17
2023-04-25T09:04:18.637Z,32.43
2023-04-25T09:05:20.870Z,32.49
2023-04-25T09:06:18.597Z,32.74
2023-04-25T09:07:18.483Z,32.84
2023-04-25T09:08:18.490Z,32.92
2023-04-25T09:09:18.455Z,32.88
2023-04-25T09:10:18.435Z,32.97
2023-04-25T09:11:19.623Z,33.02
2023-04-25T09:12:18.357Z,33.18
2023-04-25T09:13:18.377Z,33.20
2023-04-25T09:14:18.407Z,33.35
2023-04-25T09:15:21.083Z,33.34
2023-04-25T09:16:18.453Z,33.58
2023-04-25T09:17:18.262Z,33.67
2023-04-25T09:18:18.253Z,33.66
2023-04-25T09:19:18.320Z,34.00
2023-04-25T09:20:18.204Z,33.89
2023-04-25T09:21:18.255Z,34.10
2023-04-25T09:22:18.167Z,34.22
2023-04-25T09:23:18.161Z,34.34
2023-04-25T09:24:18.172Z,34.42
2023-04-25T09:25:18.139Z,34.24
2023-04-25T09:26:18.133Z,34.28
2023-04-25T09:27:18.140Z,34.36
2023-04-25T09:28:18.042Z,34.57
2023-04-25T09:29:18.045Z,34.63
2023-04-25T09:30:18.099Z,34.58
2023-04-25T09:31:17.959Z,34.76
2023-04-25T09:32:18.075Z,34.78
2023-04-25T09:33:18.029Z,34.93
2023-04-25T09:34:17.949Z,34.96
2023-04-25T09:35:17.979Z,35.17
2023-04-25T09:36:17.854Z,34.99
2023-04-25T09:37:17.831Z,35.22
2023-04-25T09:38:17.785Z,35.31
2023-04-25T09:39:17.788Z,35.31
2023-04-25T09:40:17.793Z,35.40
2023-04-25T09:41:17.863Z,35.62
2023-04-25T09:42:17.717Z,35.92
2023-04-25T09:43:18.364Z,35.08
2023-04-25T09:44:17.676Z,34.53
2023-04-25T09:45:17.601Z,34.15
2023-04-25T09:46:18.106Z,33.92
2023-04-25T09:47:17.668Z,33.36
2023-04-25T09:48:17.696Z,32.76
2023-04-25T09:49:17.845Z,32.40
2023-04-25T09:50:17.936Z,32.49
2023-04-25T09:51:18.182Z,32.30
2023-04-25T09:52:17.889Z,32.09
2023-04-25T09:53:17.915Z,31.92
2023-04-25T09:54:18.104Z,30.75
2023-04-25T09:55:18.163Z,30.74
2023-04-25T09:56:18.066Z,30.65
2023-04-25T09:57:18.128Z,30.68
2023-04-25T09:58:18.393Z,30.51
2023-04-25T09:59:20.237Z,30.45
2023-04-25T10:00:18.578Z,30.46
2023-04-25T10:01:18.245Z,30.35
2023-04-25T10:02:18.711Z,30.05
2023-04-25T10:03:18.270Z,30.01
2023-04-25T10:04:18.427Z,29.83
2023-04-25T10:05:18.199Z,29.77
2023-04-25T10:06:18.518Z,29.72
2023-04-25T10:07:18.185Z,29.76
2023-04-25T10:08:18.052Z,29.71
2023-04-25T10:09:18.015Z,29.71
2023-04-25T10:10:18.130Z,29.72
2023-04-25T10:11:18.053Z,29.64
2023-04-25T10:12:18.034Z,29.59
2023-04-25T10:13:17.950Z,29.54
2023-04-25T10:14:18.157Z,29.65
2023-04-25T10:15:17.884Z,29.48
2023-04-25T10:16:17.946Z,29.61
2023-04-25T10:17:17.857Z,29.50
2023-04-25T10:18:17.852Z,29.43
2023-04-25T10:19:18.430Z,29.53
2023-04-25T10:20:17.830Z,29.44
2023-04-25T10:21:17.821Z,29.44
2023-04-25T10:22:17.798Z,29.52
2023-04-25T10:23:17.768Z,29.82
2023-04-25T10:24:17.799Z,29.71
2023-04-25T10:25:17.773Z,29.42
2023-04-25T10:26:17.760Z,29.56
2023-04-25T10:27:17.738Z,29.68
2023-04-25T10:28:17.707Z,30.16
2023-04-25T10:29:17.739Z,30.33
2023-04-25T10:30:17.859Z,30.38
2023-04-25T10:31:17.786Z,30.40
2023-04-25T10:32:17.726Z,30.22
2023-04-25T10:33:17.647Z,30.29
2023-04-25T10:34:17.649Z,30.30
2023-04-25T10:35:17.701Z,30.14
2023-04-25T10:36:17.637Z,30.06
2023-04-25T10:37:17.610Z,29.84
2023-04-25T10:38:17.582Z,29.63
2023-04-25T10:39:17.577Z,29.57
2023-04-25T10:40:17.581Z,29.67
2023-04-25T10:41:17.607Z,29.71
2023-04-25T10:42:17.583Z,29.56
2023-04-25T10:43:17.540Z,29.69
2023-04-25T10:44:17.514Z,29.73
2023-04-25T10:45:17.489Z,29.86
2023-04-25T10:46:17.503Z,29.68
2023-04-25T10:47:17.495Z,29.64
2023-04-25T10:48:17.453Z,29.61
2023-04-25T10:49:17.461Z,29.71
2023-04-25T10:50:17.518Z,29.66
2023-04-25T10:51:17.398Z,29.83
2023-04-25T10:52:17.523Z,29.85
2023-04-25T10:53:17.386Z,29.80
2023-04-25T10:54:17.373Z,29.84
2023-04-25T10:55:17.363Z,29.86
2023-04-25T10:56:17.368Z,29.90
2023-04-25T10:57:17.347Z,29.90
2023-04-25T10:58:17.318Z,29.86
2023-04-25T10:59:17.298Z,29.91
2023-04-25T11:00:17.298Z,29.83
2023-04-25T11:01:17.336Z,29.80
2023-04-25T11:02:17.356Z,29.77
2023-04-25T11:03:17.416Z,29.81
2023-04-25T11:04:17.448Z,29.92
2023-04-25T11:05:19.047Z,29.87
2023-04-25T11:06:17.201Z,29.74
2023-04-25T11:07:17.174Z,29.93
2023-04-25T11:08:17.160Z,29.82
2023-04-25T11:09:17.148Z,29.89
2023-04-25T11:10:17.145Z,29.91
2023-04-25T11:11:17.134Z,29.84
2023-04-25T11:12:17.122Z,29.69
2023-04-25T11:13:17.119Z,29.68
2023-04-25T11:14:17.244Z,29.84
2023-04-25T11:15:17.079Z,29.88
2023-04-25T11:16:23.601Z,29.81
2023-04-25T11:17:18.290Z,29.77
2023-04-25T11:18:17.045Z,29.61
2023-04-25T11:19:17.010Z,29.40
2023-04-25T11:20:16.982Z,29.71
2023-04-25T11:21:17.027Z,29.44
2023-04-25T11:22:16.933Z,29.56
2023-04-25T11:23:16.909Z,29.66
2023-04-25T11:24:16.883Z,29.79
2023-04-25T11:25:16.874Z,29.79
2023-04-25T11:26:16.866Z,29.81
2023-04-25T11:27:16.954Z,29.83
2023-04-25T11:28:16.877Z,29.89
2023-04-25T11:29:16.788Z,29.92
2023-04-25T11:30:16.811Z,29.93
2023-04-25T11:31:16.756Z,29.95
2023-04-25T11:32:16.836Z,29.95
2023-04-25T11:33:16.777Z,29.96
2023-04-25T11:34:16.687Z,29.81
2023-04-25T11:35:16.687Z,29.87
2023-04-25T11:36:16.638Z,29.92
2023-04-25T11:37:16.627Z,29.92
2023-04-25T11:38:16.623Z,29.89
2023-04-25T11:39:16.601Z,29.83
2023-04-25T11:40:16.590Z,29.89
2023-04-25T11:41:16.564Z,29.95
2023-04-25T11:42:16.536Z,29.92
2023-04-25T11:43:16.818Z,29.74
2023-04-25T11:44:16.489Z,29.78
2023-04-25T11:45:16.560Z,29.82
2023-04-25T11:46:16.520Z,29.85
2023-04-25T11:47:16.438Z,29.67
2023-04-25T11:48:16.596Z,29.77
2023-04-25T11:49:16.376Z,29.70
2023-04-25T11:50:16.375Z,29.80
2023-04-25T11:51:16.335Z,29.81
2023-04-25T11:52:16.333Z,29.74
2023-04-25T11:53:16.301Z,29.82
2023-04-25T11:54:16.304Z,29.84
2023-04-25T11:55:16.315Z,29.88
2023-04-25T11:56:16.277Z,29.84
2023-04-25T11:57:16.218Z,29.89
2023-04-25T11:58:16.203Z,29.89
2023-04-25T11:59:16.190Z,29.82
2023-04-25T12:00:18.698Z,29.91
2023-04-25T12:01:16.140Z,29.87
2023-04-25T12:02:16.285Z,29.98
2023-04-25T12:03:16.309Z,30.02
2023-04-25T12:04:16.249Z,29.91
2023-04-25T12:05:31.094Z,30.06
2023-04-25T12:06:17.198Z,30.09
2023-04-25T12:07:16.051Z,30.14
2023-04-25T12:08:16.152Z,30.16
2023-04-25T12:09:16.007Z,30.17
2023-04-25T12:10:16.012Z,30.15
2023-04-25T12:11:15.987Z,30.18
2023-04-25T12:12:15.960Z,30.21
2023-04-25T12:13:15.951Z,30.21
2023-04-25T12:14:15.918Z,30.20
2023-04-25T12:15:15.918Z,30.06
2023-04-25T12:16:15.957Z,30.18
2023-04-25T12:17:15.893Z,30.14
2023-04-25T12:18:15.936Z,30.15
2023-04-25T12:19:15.865Z,30.17
2023-04-25T12:20:15.834Z,30.18
2023-04-25T12:21:15.796Z,29.98
2023-04-25T12:22:15.780Z,30.06
2023-04-25T12:23:15.803Z,29.99
2023-04-25T12:24:15.772Z,30.06
2023-04-25T12:25:15.752Z,29.92
2023-04-25T12:26:15.782Z,30.06
2023-04-25T12:27:15.706Z,29.98
2023-04-25T12:28:15.701Z,30.11
2023-04-25T12:29:15.714Z,30.02
2023-04-25T12:30:15.684Z,30.02
2023-04-25T12:31:15.740Z,30.03
2023-04-25T12:32:15.665Z,30.08
2023-04-25T12:33:15.707Z,30.09
2023-04-25T12:34:15.672Z,29.96
2023-04-25T12:35:15.614Z,30.06
2023-04-25T12:36:15.607Z,30.02
2023-04-25T12:37:15.599Z,29.97
2023-04-25T12:38:15.567Z,29.91
2023-04-25T12:39:15.560Z,29.91
2023-04-25T12:40:15.548Z,29.87
2023-04-25T12:41:15.525Z,29.90
2023-04-25T12:42:15.505Z,29.79
2023-04-25T12:43:15.475Z,29.84
2023-04-25T12:44:15.456Z,29.70
2023-04-25T12:45:15.458Z,29.72
2023-04-25T12:46:15.500Z,29.90
2023-04-25T12:47:15.419Z,29.86
2023-04-25T12:48:15.409Z,29.91
2023-04-25T12:49:18.784Z,29.86
2023-04-25T12:50:15.410Z,29.89
2023-04-25T12:51:15.343Z,29.90
2023-04-25T12:52:15.355Z,29.90
2023-04-25T12:53:15.331Z,29.68